Time;durP1;ratioP1;P1;durP2;ratioP2;P2;SDS_P1;SDS_P2;PMS_P1;PMS_P2;Temp;Humidity;BMP_temperature;BMP_pressure;BME280_temperature;BME280_humidity;BME280_pressure;Samples;Min_cycle;Max_cycle;Signal;HPM_P1;HPM_P2
2022/10/22 00:00:37;;;;;;;0.70;0.50;;;13.30;99.90;;;;;;5135148;27;20661;-85
2022/10/22 00:03:03;;;;;;;0.30;0.20;;;13.40;99.90;;;;;;5134973;27;20603;-84
2022/10/22 00:05:30;;;;;;;0.50;0.30;;;13.40;99.90;;;;;;5135226;27;21202;-85
2022/10/22 00:07:57;;;;;;;0.40;0.30;;;13.40;99.90;;;;;;5134553;27;20664;-84
2022/10/22 00:10:24;;;;;;;0.60;0.50;;;13.30;99.90;;;;;;5135142;27;20721;-84
2022/10/22 00:12:51;;;;;;;0.30;0.20;;;13.30;99.90;;;;;;5134847;27;20625;-84
2022/10/22 00:15:19;;;;;;;0.40;0.30;;;13.30;99.90;;;;;;5134590;27;21238;-84
2022/10/22 00:17:48;;;;;;;0.53;0.33;;;13.30;99.90;;;;;;5134250;27;20718;-84
2022/10/22 00:20:15;;;;;;;0.40;0.20;;;13.30;99.90;;;;;;5135295;27;21252;-84
2022/10/22 00:22:42;;;;;;;0.30;0.20;;;13.30;99.90;;;;;;5134980;27;20714;-83
2022/10/22 00:25:09;;;;;;;0.30;0.30;;;13.20;99.90;;;;;;5134257;27;20614;-85
2022/10/22 00:27:36;;;;;;;0.40;0.40;;;13.20;99.90;;;;;;5134224;27;20637;-84
2022/10/22 00:30:03;;;;;;;0.50;0.20;;;13.30;99.90;;;;;;5134466;27;20607;-84
2022/10/22 00:32:31;;;;;;;0.40;0.30;;;13.30;99.90;;;;;;5134865;27;20638;-85
2022/10/22 00:34:58;;;;;;;0.50;0.40;;;13.20;99.90;;;;;;5134820;27;20664;-84
2022/10/22 00:37:25;;;;;;;0.40;0.30;;;13.20;99.90;;;;;;5133941;27;20629;-85
2022/10/22 00:39:52;;;;;;;0.37;0.23;;;13.20;99.90;;;;;;5134590;27;20610;-85
2022/10/22 00:42:21;;;;;;;0.70;0.20;;;13.20;99.90;;;;;;5134423;27;20621;-84
2022/10/22 00:45:13;;;;;;;0.40;0.30;;;13.10;99.90;;;;;;5134703;27;21243;-84
2022/10/22 00:47:45;;;;;;;0.60;0.40;;;13.10;99.90;;;;;;5133886;27;20725;-85
2022/10/22 00:50:15;;;;;;;1.90;0.37;;;13.20;99.90;;;;;;5134991;27;20599;-84
2022/10/22 00:52:44;;;;;;;0.40;0.20;;;13.10;99.90;;;;;;5134712;27;20721;-83
2022/10/22 00:55:12;;;;;;;0.40;0.23;;;13.20;99.90;;;;;;5133848;27;20686;-85
2022/10/22 00:57:40;;;;;;;0.40;0.40;;;13.10;99.90;;;;;;5132900;27;20615;-85
2022/10/22 01:00:09;;;;;;;0.50;0.50;;;13.10;99.90;;;;;;5134349;27;20700;-85
2022/10/22 01:02:36;;;;;;;0.40;0.37;;;13.10;99.90;;;;;;5133471;27;20607;-84
2022/10/22 01:05:04;;;;;;;0.40;0.30;;;13.10;99.90;;;;;;5133187;27;20659;-84
2022/10/22 01:07:33;;;;;;;0.63;0.50;;;13.10;99.90;;;;;;5132558;27;20710;-84
2022/10/22 01:10:05;;;;;;;0.47;0.30;;;12.80;99.90;;;;;;5134310;27;20609;-84
2022/10/22 01:12:42;;;;;;;0.40;0.30;;;13.20;99.90;;;;;;5134009;27;20691;-84
2022/10/22 01:15:17;;;;;;;0.70;0.67;;;13.00;99.90;;;;;;5133987;27;20669;-84
2022/10/22 01:17:53;;;;;;;0.30;0.30;;;13.20;99.90;;;;;;5133223;27;20625;-85
2022/10/22 01:20:44;;;;;;;0.87;0.33;;;13.20;99.90;;;;;;5134134;27;21098;-85
2022/10/22 01:23:24;;;;;;;0.40;0.30;;;13.20;99.90;;;;;;5133763;27;20638;-84
2022/10/22 01:25:56;;;;;;;0.40;0.30;;;13.30;99.90;;;;;;5132773;27;20628;-84
2022/10/22 01:28:39;;;;;;;0.70;0.50;;;13.20;99.90;;;;;;5132765;27;20642;-84
2022/10/22 01:31:07;;;;;;;0.40;0.30;;;13.30;99.90;;;;;;5133792;27;21212;-85
2022/10/22 01:33:37;;;;;;;0.40;0.30;;;13.30;99.90;;;;;;5133726;27;20717;-84
2022/10/22 01:36:05;;;;;;;0.70;0.40;;;13.30;99.90;;;;;;5133380;27;21199;-85
2022/10/22 01:38:33;;;;;;;0.40;0.40;;;13.20;99.90;;;;;;5132978;27;20610;-85
2022/10/22 01:41:00;;;;;;;0.40;0.30;;;13.30;99.90;;;;;;5133109;27;20602;-84
2022/10/22 01:43:27;;;;;;;0.30;0.30;;;13.20;99.90;;;;;;5133703;27;20603;-85
2022/10/22 01:45:58;;;;;;;1.80;0.40;;;13.30;99.90;;;;;;5133595;27;20610;-84
2022/10/22 01:48:35;;;;;;;0.60;0.60;;;13.20;99.90;;;;;;5133249;27;20599;-84
2022/10/22 01:51:21;;;;;;;0.80;0.30;;;13.20;99.90;;;;;;5132317;27;20655;-84
2022/10/22 01:53:53;;;;;;;0.70;0.23;;;13.20;99.90;;;;;;5133158;27;21247;-84
2022/10/22 01:56:35;;;;;;;0.33;0.33;;;13.10;99.90;;;;;;5132659;27;20611;-85
2022/10/22 01:59:06;;;;;;;0.60;0.30;;;13.00;99.90;;;;;;5133460;27;20639;-84
2022/10/22 02:01:42;;;;;;;0.87;0.47;;;13.00;99.90;;;;;;5132491;27;20619;-85
2022/10/22 02:04:15;;;;;;;1.43;0.37;;;14.00;99.90;;;;;;5133622;27;20641;-84
2022/10/22 02:06:44;;;;;;;0.40;0.40;;;13.00;99.90;;;;;;5132399;27;21283;-84
2022/10/22 02:09:13;;;;;;;0.47;0.37;;;12.90;99.90;;;;;;5133171;27;20603;-84
2022/10/22 02:11:42;;;;;;;0.40;0.37;;;12.90;99.90;;;;;;5132709;27;20643;-84
2022/10/22 02:14:10;;;;;;;0.40;0.30;;;13.00;99.90;;;;;;5132275;27;20668;-85
2022/10/22 02:16:43;;;;;;;0.47;0.23;;;13.00;99.90;;;;;;5131838;27;20607;-84
2022/10/22 02:19:15;;;;;;;0.40;0.30;;;13.00;99.90;;;;;;5132665;27;20634;-84
2022/10/22 02:21:43;;;;;;;0.60;0.37;;;;;;;;;;5132588;27;20599;-84
2022/10/22 02:24:10;;;;;;;0.50;0.30;;;13.10;99.90;;;;;;5132643;27;20702;-84
2022/10/22 02:26:43;;;;;;;0.30;0.30;;;13.00;99.90;;;;;;5130762;27;20614;-84
2022/10/22 02:29:18;;;;;;;0.30;0.30;;;13.10;99.90;;;;;;5132614;27;20602;-84
2022/10/22 02:31:48;;;;;;;0.40;0.30;;;13.10;99.90;;;;;;5132456;27;20791;-84
2022/10/22 02:34:21;;;;;;;0.40;0.30;;;13.90;99.90;;;;;;5132259;27;21013;-83
2022/10/22 02:36:50;;;;;;;0.50;0.30;;;13.10;99.90;;;;;;5131669;27;21198;-84
2022/10/22 02:39:19;;;;;;;0.40;0.30;;;12.90;99.90;;;;;;5132009;27;20618;-84
2022/10/22 02:41:46;;;;;;;0.30;0.20;;;;;;;;;;5132072;27;20602;-84
2022/10/22 02:44:13;;;;;;;0.30;0.30;;;13.10;99.90;;;;;;5132355;27;20595;-84
2022/10/22 02:46:42;;;;;;;0.60;0.30;;;13.10;99.90;;;;;;5131334;27;20634;-84
2022/10/22 02:49:11;;;;;;;0.30;0.30;;;13.10;99.90;;;;;;5132626;27;20972;-84
2022/10/22 02:51:38;;;;;;;0.70;0.30;;;13.10;99.90;;;;;;5131613;27;20606;-84
2022/10/22 02:54:05;;;;;;;0.57;0.30;;;13.10;99.90;;;;;;5131885;27;20635;-84
2022/10/22 02:56:32;;;;;;;0.30;0.20;;;13.10;99.90;;;;;;5131594;27;20619;-84
2022/10/22 02:58:59;;;;;;;0.30;0.20;;;13.10;99.90;;;;;;5131870;27;21241;-84
2022/10/22 03:01:26;;;;;;;0.40;0.40;;;13.20;99.90;;;;;;5131922;27;20618;-84
2022/10/22 03:03:53;;;;;;;0.30;0.23;;;13.00;99.90;;;;;;5131705;27;20668;-84
2022/10/22 03:06:21;;;;;;;0.60;0.40;;;13.00;99.90;;;;;;5131011;27;20603;-84
2022/10/22 03:08:49;;;;;;;0.43;0.30;;;13.10;99.90;;;;;;5131883;27;20615;-84
2022/10/22 03:11:15;;;;;;;0.80;0.40;;;13.20;99.90;;;;;;5132148;27;20605;-84
2022/10/22 03:13:42;;;;;;;1.07;0.63;;;13.10;99.90;;;;;;5122337;27;20625;-84
2022/10/22 03:16:09;;;;;;;0.87;0.57;;;13.00;99.90;;;;;;5131880;27;20758;-84
2022/10/22 03:18:36;;;;;;;0.40;0.40;;;13.10;99.90;;;;;;5130956;27;20599;-84
2022/10/22 03:21:09;;;;;;;0.43;0.43;;;13.10;99.90;;;;;;5131232;27;20681;-85
2022/10/22 03:23:40;;;;;;;0.47;0.47;;;13.10;99.90;;;;;;5131720;28;20611;-84
2022/10/22 03:26:08;;;;;;;0.60;0.60;;;13.10;99.90;;;;;;5130374;28;21164;-83
2022/10/22 03:28:36;;;;;;;0.40;0.30;;;13.20;99.90;;;;;;5131212;28;20611;-82
2022/10/22 03:31:02;;;;;;;0.40;0.30;;;13.10;99.90;;;;;;5131663;28;20627;-82
2022/10/22 03:33:29;;;;;;;0.30;0.30;;;13.10;99.90;;;;;;5130951;28;20680;-83
2022/10/22 03:35:56;;;;;;;0.30;0.30;;;13.00;99.90;;;;;;5131679;28;20760;-82
2022/10/22 03:38:23;;;;;;;0.50;0.40;;;13.00;99.90;;;;;;5130990;28;20595;-82
2022/10/22 03:40:52;;;;;;;1.00;0.57;;;13.00;99.90;;;;;;5131544;28;20649;-83
2022/10/22 03:43:18;;;;;;;0.40;0.30;;;13.10;99.90;;;;;;5131825;28;20642;-83
2022/10/22 03:45:45;;;;;;;0.70;0.30;;;13.00;99.90;;;;;;5131443;28;20730;-82
2022/10/22 03:48:12;;;;;;;0.30;0.20;;;13.20;99.90;;;;;;5130951;28;20674;-82
2022/10/22 03:50:39;;;;;;;0.40;0.40;;;13.20;99.90;;;;;;5131851;28;20625;-82
2022/10/22 03:53:09;;;;;;;0.60;0.40;;;13.10;99.90;;;;;;5131707;28;20706;-83
2022/10/22 03:55:37;;;;;;;1.27;0.43;;;13.50;99.90;;;;;;5130976;28;21243;-82
2022/10/22 03:58:05;;;;;;;0.40;0.30;;;13.10;99.90;;;;;;5130901;28;21184;-81
2022/10/22 04:00:32;;;;;;;0.30;0.30;;;13.10;99.90;;;;;;5130735;28;21271;-82
2022/10/22 04:02:59;;;;;;;0.93;0.63;;;13.00;99.90;;;;;;5131335;28;20640;-82
2022/10/22 04:05:26;;;;;;;2.30;0.40;;;13.00;99.90;;;;;;5131122;28;20650;-82
2022/10/22 04:07:53;;;;;;;0.70;0.60;;;13.10;99.90;;;;;;5130799;28;20633;-82
2022/10/22 04:10:20;;;;;;;0.90;0.37;;;13.00;99.90;;;;;;5130857;28;20947;-82
2022/10/22 04:12:47;;;;;;;0.50;0.50;;;12.90;99.90;;;;;;5130997;28;20730;-82
2022/10/22 04:15:16;;;;;;;0.40;0.30;;;13.00;99.90;;;;;;5130790;28;21207;-82
2022/10/22 04:17:42;;;;;;;0.60;0.40;;;12.90;99.90;;;;;;5131095;28;20699;-82
2022/10/22 04:20:10;;;;;;;0.40;0.30;;;13.80;99.90;;;;;;5130975;28;20646;-84
2022/10/22 04:22:37;;;;;;;0.93;0.40;;;12.90;99.90;;;;;;5131522;27;20684;-84
2022/10/22 04:25:05;;;;;;;0.30;0.20;;;12.90;99.90;;;;;;5129504;28;21286;-84
2022/10/22 04:27:33;;;;;;;0.50;0.40;;;12.90;99.90;;;;;;5130151;28;21168;-84
2022/10/22 04:30:00;;;;;;;0.50;0.50;;;12.90;99.90;;;;;;5131413;28;20615;-84
2022/10/22 04:32:28;;;;;;;0.53;0.53;;;12.70;99.90;;;;;;5132820;27;21005;-84
2022/10/22 04:34:55;;;;;;;0.30;0.30;;;12.80;99.90;;;;;;5134718;27;20753;-84
2022/10/22 04:37:22;;;;;;;0.77;0.77;;;12.70;99.90;;;;;;5134300;27;20650;-84
2022/10/22 04:39:49;;;;;;;0.40;0.30;;;12.80;99.90;;;;;;5134646;27;20623;-84
2022/10/22 04:42:16;;;;;;;0.50;0.20;;;12.80;99.90;;;;;;5134307;27;20615;-84
2022/10/22 04:44:42;;;;;;;0.40;0.20;;;12.80;99.90;;;;;;5135045;27;20717;-86
2022/10/22 04:47:09;;;;;;;0.63;0.40;;;12.80;99.90;;;;;;5133967;27;20797;-87
2022/10/22 04:49:37;;;;;;;0.90;0.60;;;12.80;99.90;;;;;;5134590;27;20603;-86
2022/10/22 04:52:04;;;;;;;0.30;0.20;;;12.80;99.90;;;;;;5134603;27;20615;-86
2022/10/22 04:54:31;;;;;;;0.30;0.30;;;12.80;99.90;;;;;;5134181;27;20634;-85
2022/10/22 04:56:58;;;;;;;0.40;0.20;;;12.70;99.90;;;;;;5134222;27;20718;-85
2022/10/22 04:59:24;;;;;;;0.40;0.40;;;12.50;99.90;;;;;;5134520;27;20690;-85
2022/10/22 05:01:51;;;;;;;0.30;0.20;;;12.70;99.90;;;;;;5134039;27;21159;-85
2022/10/22 05:04:19;;;;;;;0.30;0.20;;;12.70;99.90;;;;;;5134674;27;20618;-85
2022/10/22 05:06:47;;;;;;;0.77;0.43;;;12.70;99.90;;;;;;5133600;27;20611;-86
2022/10/22 05:09:18;;;;;;;1.33;0.40;;;12.70;99.90;;;;;;5134296;27;20610;-85
2022/10/22 05:11:47;;;;;;;0.30;0.20;;;13.40;99.90;;;;;;5134150;27;20650;-86
2022/10/22 05:14:15;;;;;;;1.13;0.40;;;12.70;99.90;;;;;;5134325;27;21209;-85
2022/10/22 05:16:44;;;;;;;0.50;0.33;;;12.60;99.90;;;;;;5133389;27;20770;-85
2022/10/22 05:19:16;;;;;;;2.40;0.40;;;12.70;99.90;;;;;;5134334;27;21011;-83
2022/10/22 05:21:43;;;;;;;0.50;0.33;;;12.60;99.90;;;;;;5133619;27;20599;-83
2022/10/22 05:24:12;;;;;;;0.60;0.60;;;12.60;99.90;;;;;;5134447;27;20650;-85
2022/10/22 05:26:38;;;;;;;0.30;0.30;;;12.50;99.90;;;;;;5132047;27;20609;-83
2022/10/22 05:29:05;;;;;;;1.03;0.40;;;12.60;99.90;;;;;;5134055;27;20697;-83
2022/10/22 05:31:32;;;;;;;0.50;0.50;;;12.60;99.90;;;;;;5133955;27;20635;-84
2022/10/22 05:33:59;;;;;;;0.53;0.53;;;12.60;99.90;;;;;;5134019;27;20607;-84
2022/10/22 05:36:26;;;;;;;0.40;0.40;;;12.60;99.90;;;;;;5132726;27;21358;-83
2022/10/22 05:38:53;;;;;;;0.40;0.30;;;12.80;99.90;;;;;;5133974;27;20611;-83
2022/10/22 05:41:23;;;;;;;0.30;0.20;;;12.60;99.90;;;;;;5133439;27;21263;-83
2022/10/22 05:43:50;;;;;;;0.90;0.57;;;12.60;99.90;;;;;;5133087;27;21232;-84
2022/10/22 05:46:19;;;;;;;0.77;0.60;;;12.60;99.90;;;;;;5133591;27;20621;-83
2022/10/22 05:48:49;;;;;;;0.50;0.50;;;12.40;99.90;;;;;;5133010;27;20705;-83
2022/10/22 05:51:15;;;;;;;0.30;0.20;;;12.60;99.90;;;;;;5133573;27;21241;-83
2022/10/22 05:53:43;;;;;;;0.30;0.30;;;12.60;99.90;;;;;;5133208;27;20649;-83
2022/10/22 05:56:13;;;;;;;0.60;0.40;;;12.60;99.90;;;;;;5133663;27;21296;-83
2022/10/22 05:58:42;;;;;;;0.40;0.30;;;12.50;99.90;;;;;;5133246;27;20602;-83
2022/10/22 06:01:12;;;;;;;1.47;0.50;;;12.50;99.90;;;;;;5132694;27;20721;-83
2022/10/22 06:03:40;;;;;;;3.80;1.40;;;12.60;99.90;;;;;;5133180;27;20622;-82
2022/10/22 06:06:17;;;;;;;0.30;0.20;;;12.60;99.90;;;;;;5133592;27;20627;-83
2022/10/22 06:08:44;;;;;;;0.63;0.47;;;12.60;99.90;;;;;;5133027;27;20959;-83
2022/10/22 06:11:12;;;;;;;0.50;0.40;;;12.60;99.90;;;;;;5133082;27;20689;-83
2022/10/22 06:13:39;;;;;;;0.30;0.30;;;12.60;99.90;;;;;;5132243;27;20644;-83
2022/10/22 06:16:07;;;;;;;0.50;0.45;;;12.60;99.90;;;;;;5132628;27;20845;-83
2022/10/22 06:18:34;;;;;;;0.50;0.40;;;12.60;99.90;;;;;;5132475;27;20201;-83
2022/10/22 06:21:05;;;;;;;0.53;0.47;;;12.60;99.90;;;;;;5131997;27;20634;-84
2022/10/22 06:23:32;;;;;;;0.60;0.30;;;12.60;99.90;;;;;;5132821;27;20611;-83
2022/10/22 06:26:00;;;;;;;0.30;0.30;;;12.70;99.90;;;;;;5131583;27;20625;-83
2022/10/22 06:28:27;;;;;;;0.50;0.37;;;13.00;99.90;;;;;;5131766;27;20666;-84
2022/10/22 06:30:54;;;;;;;0.30;0.30;;;12.70;99.90;;;;;;5132215;27;20660;-83
2022/10/22 06:33:22;;;;;;;0.47;0.40;;;12.70;99.90;;;;;;5132558;27;20625;-83
2022/10/22 06:35:49;;;;;;;0.60;0.50;;;12.70;99.90;;;;;;5132476;27;20637;-83
2022/10/22 06:38:16;;;;;;;0.60;0.60;;;12.70;99.90;;;;;;5132041;27;21194;-84
2022/10/22 06:40:43;;;;;;;0.43;0.43;;;12.80;99.90;;;;;;5131946;27;20725;-83
2022/10/22 06:43:11;;;;;;;0.57;0.40;;;12.80;99.90;;;;;;5132750;27;20607;-84
2022/10/22 06:45:38;;;;;;;3.60;0.77;;;12.80;99.90;;;;;;5132476;27;20615;-83
2022/10/22 06:48:05;;;;;;;1.17;0.70;;;12.80;99.90;;;;;;5131660;27;20623;-83
2022/10/22 06:50:35;;;;;;;0.93;0.50;;;12.80;99.90;;;;;;5132454;27;20642;-83
2022/10/22 06:53:02;;;;;;;0.57;0.57;;;13.30;99.90;;;;;;5132457;27;20611;-83
2022/10/22 06:55:29;;;;;;;1.63;1.53;;;12.90;99.90;;;;;;5131118;27;20678;-83
2022/10/22 06:57:56;;;;;;;1.50;0.93;;;13.40;99.90;;;;;;5131836;27;20618;-83
2022/10/22 07:00:22;;;;;;;3.30;1.58;;;13.00;99.90;;;;;;5132053;27;20730;-83
2022/10/22 07:02:52;;;;;;;1.60;1.30;;;13.00;99.90;;;;;;5131858;27;20602;-82
2022/10/22 07:05:19;;;;;;;0.63;0.50;;;13.00;99.90;;;;;;5131598;27;21077;-83
2022/10/22 07:07:48;;;;;;;2.10;0.47;;;13.00;99.90;;;;;;5131229;27;20610;-83
2022/10/22 07:10:15;;;;;;;0.67;0.53;;;13.00;99.90;;;;;;5131263;27;20675;-83
2022/10/22 07:12:41;;;;;;;0.60;0.27;;;12.90;99.90;;;;;;5131910;27;20647;-84
2022/10/22 07:15:09;;;;;;;0.77;0.77;;;13.10;99.90;;;;;;5132056;27;20618;-83
2022/10/22 07:17:36;;;;;;;0.47;0.47;;;13.10;99.90;;;;;;5131396;27;20603;-83
2022/10/22 07:20:04;;;;;;;2.60;0.73;;;13.00;99.90;;;;;;5131616;27;20678;-83
2022/10/22 07:22:31;;;;;;;0.40;0.40;;;13.10;99.90;;;;;;5130987;28;20606;-83
2022/10/22 07:24:59;;;;;;;2.63;0.53;;;13.10;99.90;;;;;;5130893;28;20721;-83
2022/10/22 07:27:26;;;;;;;0.40;0.20;;;14.10;99.90;;;;;;5131043;28;20619;-82
2022/10/22 07:29:53;;;;;;;0.60;0.60;;;13.20;99.90;;;;;;5131598;28;20603;-83
2022/10/22 07:32:20;;;;;;;0.40;0.40;;;13.10;99.90;;;;;;5131855;28;20607;-82
2022/10/22 07:34:47;;;;;;;0.40;0.33;;;13.10;99.90;;;;;;5131580;28;20667;-82
2022/10/22 07:37:14;;;;;;;0.50;0.50;;;13.30;99.90;;;;;;5130188;28;20686;-83
2022/10/22 07:39:40;;;;;;;0.43;0.33;;;13.30;99.90;;;;;;5131937;28;20622;-83
2022/10/22 07:42:09;;;;;;;0.47;0.47;;;13.70;99.90;;;;;;5131492;28;20591;-82
2022/10/22 07:44:35;;;;;;;0.80;0.50;;;13.30;99.90;;;;;;5132137;28;20676;-83
2022/10/22 07:47:02;;;;;;;0.40;0.40;;;13.30;99.90;;;;;;5130911;28;20609;-83
2022/10/22 07:49:29;;;;;;;0.80;0.30;;;13.10;99.90;;;;;;5131197;28;20660;-86
2022/10/22 07:51:56;;;;;;;0.70;0.50;;;13.30;99.90;;;;;;5131665;28;20710;-83
2022/10/22 07:54:23;;;;;;;0.30;0.30;;;13.40;99.90;;;;;;5131430;28;21019;-83
2022/10/22 07:56:50;;;;;;;0.60;0.50;;;13.30;99.90;;;;;;5130659;28;20705;-82
2022/10/22 07:59:18;;;;;;;0.80;0.50;;;13.40;99.90;;;;;;5131433;28;20643;-83
2022/10/22 08:01:46;;;;;;;0.67;0.57;;;13.40;99.90;;;;;;5131460;28;21035;-82
2022/10/22 08:04:13;;;;;;;3.60;0.50;;;13.40;99.90;;;;;;5130807;28;20921;-83
2022/10/22 08:06:39;;;;;;;0.50;0.40;;;13.50;99.90;;;;;;5133270;27;20713;-83
2022/10/22 08:09:06;;;;;;;0.80;0.67;;;13.60;99.90;;;;;;5135662;27;20699;-83
2022/10/22 08:11:33;;;;;;;0.67;0.67;;;13.60;99.90;;;;;;5134965;27;20615;-82
2022/10/22 08:14:05;;;;;;;0.50;0.50;;;13.70;99.90;;;;;;5135091;27;20976;-84
2022/10/22 08:16:33;;;;;;;0.40;0.30;;;13.70;99.90;;;;;;5134127;27;21098;-83
2022/10/22 08:19:06;;;;;;;0.90;0.80;;;13.70;99.90;;;;;;5135397;27;21094;-85
2022/10/22 08:21:33;;;;;;;0.60;0.30;;;13.80;99.90;;;;;;5135595;27;20713;-83
2022/10/22 08:23:59;;;;;;;0.40;0.40;;;14.50;99.90;;;;;;5135000;27;21052;-82
2022/10/22 08:26:26;;;;;;;1.90;0.67;;;13.90;99.90;;;;;;5133407;27;20730;-83
2022/10/22 08:28:53;;;;;;;1.50;1.00;;;13.80;99.90;;;;;;5135071;27;21164;-83
2022/10/22 08:31:20;;;;;;;1.23;0.43;;;;;;;;;;5135012;27;20661;-82
2022/10/22 08:33:49;;;;;;;0.40;0.30;;;13.80;99.90;;;;;;5134896;27;20722;-83
2022/10/22 08:36:16;;;;;;;1.10;0.60;;;13.80;99.90;;;;;;5133912;27;20699;-85
2022/10/22 08:38:43;;;;;;;0.50;0.50;;;13.80;99.90;;;;;;5134646;27;21176;-82
2022/10/22 08:41:12;;;;;;;0.87;0.50;;;13.80;99.90;;;;;;5135118;27;20646;-81
2022/10/22 08:44:05;;;;;;;3.50;0.77;;;13.80;99.90;;;;;;5134462;27;20602;-83
2022/10/22 08:46:46;;;;;;;0.67;0.67;;;14.00;99.90;;;;;;5134396;27;20634;-83
2022/10/22 08:49:20;;;;;;;0.50;0.50;;;14.70;99.90;;;;;;5135083;27;20607;-82
2022/10/22 08:51:47;;;;;;;0.40;0.40;;;14.20;99.90;;;;;;5134777;27;20639;-81
2022/10/22 08:54:22;;;;;;;0.67;0.47;;;14.40;99.90;;;;;;5133891;27;20675;-84
2022/10/22 08:57:04;;;;;;;0.67;0.67;;;14.40;99.90;;;;;;5134078;27;21086;-83
2022/10/22 08:59:38;;;;;;;0.47;0.47;;;14.50;99.90;;;;;;5133972;27;21228;-83
2022/10/22 09:02:18;;;;;;;2.63;0.73;;;14.50;99.90;;;;;;5134578;27;20706;-82
2022/10/22 09:04:56;;;;;;;0.63;0.63;;;14.60;99.90;;;;;;5133991;27;20602;-83
2022/10/22 09:07:22;;;;;;;0.60;0.50;;;14.70;99.90;;;;;;5134030;27;20611;-83
2022/10/22 09:09:51;;;;;;;0.50;0.50;;;14.60;99.90;;;;;;5134477;27;20696;-83
2022/10/22 09:12:21;;;;;;;1.23;1.13;;;15.00;99.90;;;;;;5134427;27;20623;-82
2022/10/22 09:14:47;;;;;;;1.10;0.60;;;15.10;99.90;;;;;;5133933;27;20595;-83
2022/10/22 09:17:23;;;;;;;0.67;0.60;;;15.50;99.90;;;;;;5132378;27;20758;-83
2022/10/22 09:20:02;;;;;;;0.40;0.30;;;15.30;99.90;;;;;;5134430;27;20602;-83
2022/10/22 09:22:37;;;;;;;1.40;0.57;;;15.40;99.90;;;;;;5134591;27;20622;-83
2022/10/22 09:25:18;;;;;;;0.80;0.80;;;15.30;99.90;;;;;;5132617;27;20622;-83
2022/10/22 09:27:45;;;;;;;0.47;0.47;;;15.60;99.90;;;;;;5133894;27;20624;-84
2022/10/22 09:30:16;;;;;;;0.47;0.47;;;15.60;99.90;;;;;;5133842;27;21055;-85
2022/10/22 09:32:43;;;;;;;0.30;0.30;;;15.50;99.90;;;;;;5134138;27;20706;-83
2022/10/22 09:35:13;;;;;;;0.40;0.40;;;15.60;99.90;;;;;;5134067;27;20617;-83
2022/10/22 09:37:48;;;;;;;0.40;0.30;;;15.60;99.90;;;;;;5133069;27;20672;-82
2022/10/22 09:40:16;;;;;;;0.40;0.40;;;15.60;99.90;;;;;;5133456;27;20599;-82
2022/10/22 09:42:44;;;;;;;0.57;0.50;;;15.70;99.90;;;;;;5133629;27;20636;-82
2022/10/22 09:45:17;;;;;;;0.73;0.60;;;15.70;99.90;;;;;;5133413;27;20644;-85
2022/10/22 09:47:44;;;;;;;0.40;0.40;;;15.90;99.90;;;;;;5132792;27;21223;-83
2022/10/22 09:50:21;;;;;;;0.77;0.70;;;16.00;99.90;;;;;;5132656;27;20612;-84
2022/10/22 09:52:58;;;;;;;0.97;0.90;;;16.10;99.90;;;;;;5133472;27;20709;-83
2022/10/22 09:55:26;;;;;;;0.63;0.40;;;16.10;99.90;;;;;;5133274;27;21236;-82
2022/10/22 09:57:54;;;;;;;0.60;0.60;;;16.20;99.90;;;;;;5132800;27;20757;-81
2022/10/22 10:00:23;;;;;;;0.43;0.30;;;16.10;99.90;;;;;;5132852;27;20622;-83
2022/10/22 10:02:55;;;;;;;0.60;0.60;;;16.20;99.90;;;;;;5132335;27;20603;-83
2022/10/22 10:05:28;;;;;;;0.50;0.33;;;16.20;99.90;;;;;;5133145;27;20611;-81
2022/10/22 10:07:56;;;;;;;0.63;0.47;;;16.30;99.90;;;;;;5132267;27;20621;-83
2022/10/22 10:10:35;;;;;;;0.70;0.40;;;16.20;99.90;;;;;;5133047;27;20725;-85
2022/10/22 10:13:18;;;;;;;0.57;0.57;;;16.30;99.90;;;;;;5132668;27;20614;-83
2022/10/22 10:15:54;;;;;;;0.70;0.50;;;16.30;99.90;;;;;;5132564;27;20646;-84
2022/10/22 10:18:32;;;;;;;1.53;0.50;;;16.40;99.90;;;;;;5132188;27;20662;-83
2022/10/22 10:21:08;;;;;;;1.07;0.40;;;16.40;99.90;;;;;;5133103;27;21180;-84
2022/10/22 10:23:43;;;;;;;0.60;0.50;;;16.50;99.90;;;;;;5132550;27;21163;-84
2022/10/22 10:26:15;;;;;;;0.30;0.30;;;16.30;99.90;;;;;;5131712;27;20638;-85
2022/10/22 10:28:57;;;;;;;0.57;0.50;;;16.40;99.90;;;;;;5132632;27;20655;-83
2022/10/22 10:31:36;;;;;;;0.30;0.20;;;16.40;99.90;;;;;;5132779;27;20598;-85
2022/10/22 10:34:14;;;;;;;0.93;0.50;;;16.40;99.90;;;;;;5132211;27;20721;-85
2022/10/22 10:36:55;;;;;;;0.73;0.63;;;16.40;99.90;;;;;;5132085;27;20690;-85
2022/10/22 10:39:31;;;;;;;0.40;0.33;;;16.40;99.90;;;;;;5132560;27;20646;-85
2022/10/22 10:42:05;;;;;;;2.93;0.40;;;16.50;99.90;;;;;;5133105;27;20615;-85
2022/10/22 10:45:03;;;;;;;0.80;0.67;;;16.60;99.90;;;;;;5131784;27;20618;-84
2022/10/22 10:47:56;;;;;;;0.90;0.90;;;16.50;99.90;;;;;;5096211;27;21092;-84
2022/10/22 10:50:30;;;;;;;0.60;0.60;;;16.50;99.90;;;;;;5132674;27;20623;-84
2022/10/22 10:53:07;;;;;;;4.53;0.50;;;16.50;99.90;;;;;;5131933;27;21093;-85
2022/10/22 10:55:41;;;;;;;0.60;0.60;;;16.70;99.90;;;;;;5132024;27;21053;-84
2022/10/22 10:58:18;;;;;;;0.57;0.53;;;16.50;99.90;;;;;;5131456;27;20766;-85
2022/10/22 11:00:53;;;;;;;0.87;0.87;;;16.50;99.90;;;;;;5131022;27;20623;-84
2022/10/22 11:03:46;;;;;;;0.40;0.37;;;16.70;99.90;;;;;;5131399;27;20715;-83
2022/10/22 11:06:16;;;;;;;0.47;0.47;;;16.70;99.90;;;;;;5125673;27;20623;-84
2022/10/22 11:08:53;;;;;;;0.30;0.20;;;16.90;99.90;;;;;;5131567;27;21186;-84
2022/10/22 11:11:26;;;;;;;0.50;0.40;;;16.80;99.90;;;;;;5132009;27;20642;-85
2022/10/22 11:13:57;;;;;;;0.87;0.70;;;16.80;99.90;;;;;;5131116;27;21191;-84
2022/10/22 11:16:29;;;;;;;1.13;0.30;;;17.10;99.90;;;;;;5131260;27;21180;-83
2022/10/22 11:19:02;;;;;;;0.40;0.40;;;16.90;99.90;;;;;;5132087;27;21279;-84
2022/10/22 11:21:34;;;;;;;0.67;0.40;;;16.90;99.90;;;;;;5132164;28;20966;-84
2022/10/22 11:24:09;;;;;;;0.67;0.67;;;16.80;99.90;;;;;;5131917;28;20621;-83
2022/10/22 11:26:43;;;;;;;0.53;0.53;;;17.00;99.90;;;;;;5129864;28;20618;-83
2022/10/22 11:29:15;;;;;;;0.60;0.30;;;17.00;99.90;;;;;;5131504;28;21170;-83
2022/10/22 11:31:43;;;;;;;0.30;0.30;;;17.10;99.90;;;;;;5131959;28;20617;-84
2022/10/22 11:34:17;;;;;;;0.70;0.47;;;17.10;99.90;;;;;;5132164;28;20626;-83
2022/10/22 11:36:46;;;;;;;0.30;0.30;;;17.10;99.90;;;;;;5130433;28;21156;-84
2022/10/22 11:39:38;;;;;;;0.30;0.30;;;17.20;99.90;;;;;;5131935;28;20617;-83
2022/10/22 11:42:09;;;;;;;0.40;0.40;;;17.20;99.90;;;;;;5134741;27;20618;-84
2022/10/22 11:44:47;;;;;;;0.60;0.60;;;17.30;99.90;;;;;;5135727;27;20623;-84
2022/10/22 11:47:24;;;;;;;1.10;0.60;;;17.30;99.90;;;;;;5134775;27;20610;-83
2022/10/22 11:49:57;;;;;;;0.40;0.30;;;17.20;99.90;;;;;;5136400;27;20657;-84
2022/10/22 11:52:38;;;;;;;1.70;0.90;;;17.20;99.90;;;;;;5135968;27;20654;-84
2022/10/22 11:55:32;;;;;;;0.60;0.50;;;17.20;99.90;;;;;;5135426;27;20627;-83
2022/10/22 11:58:00;;;;;;;1.10;0.73;;;17.30;99.60;;;;;;5135059;27;20711;-83
2022/10/22 12:00:39;;;;;;;0.40;0.40;;;17.30;99.90;;;;;;5114929;28;21153;-84
2022/10/22 12:03:17;;;;;;;0.87;0.43;;;17.30;99.20;;;;;;5115469;28;20625;-83
2022/10/22 12:05:45;;;;;;;0.50;0.50;;;17.30;99.90;;;;;;5114432;28;20615;-83
2022/10/22 12:08:22;;;;;;;0.90;0.50;;;17.40;99.90;;;;;;5114677;28;20711;-83
2022/10/22 12:10:58;;;;;;;0.50;0.50;;;17.40;99.60;;;;;;5114559;28;20707;-84
2022/10/22 12:13:27;;;;;;;1.70;0.70;;;17.50;99.90;;;;;;5132709;27;20610;-83
2022/10/22 12:16:06;;;;;;;0.60;0.60;;;17.60;99.90;;;;;;5134811;27;20629;-84
2022/10/22 12:18:42;;;;;;;0.50;0.50;;;17.60;99.60;;;;;;5134875;27;20658;-83
2022/10/22 12:21:13;;;;;;;0.47;0.40;;;17.70;99.80;;;;;;5135347;27;20661;-85
2022/10/22 12:23:45;;;;;;;0.60;0.60;;;17.70;98.10;;;;;;5135654;27;20645;-82
2022/10/22 12:26:25;;;;;;;0.70;0.40;;;17.70;98.60;;;;;;5133286;27;20636;-85
2022/10/22 12:28:59;;;;;;;0.40;0.30;;;17.70;99.00;;;;;;5134628;27;20629;-83
2022/10/22 12:31:29;;;;;;;0.87;0.47;;;17.70;98.10;;;;;;5134905;27;20600;-83
2022/10/22 12:33:59;;;;;;;0.40;0.20;;;17.80;98.30;;;;;;5135100;27;20717;-84
2022/10/22 12:36:28;;;;;;;0.40;0.40;;;17.80;98.50;;;;;;5134384;27;20664;-84
2022/10/22 12:38:55;;;;;;;0.60;0.50;;;;;;;;;;5135071;27;20738;-83
2022/10/22 12:41:32;;;;;;;0.40;0.37;;;17.70;98.60;;;;;;5133977;27;20631;-84
2022/10/22 12:44:05;;;;;;;0.67;0.40;;;17.60;98.30;;;;;;5134882;27;21192;-84
2022/10/22 12:46:34;;;;;;;0.60;0.60;;;17.60;97.80;;;;;;5134140;27;20621;-84
2022/10/22 12:49:04;;;;;;;0.57;0.50;;;17.60;98.00;;;;;;5134590;27;21013;-84
2022/10/22 12:51:31;;;;;;;0.63;0.63;;;17.70;98.90;;;;;;5134154;27;20622;-82
2022/10/22 12:54:03;;;;;;;0.40;0.40;;;17.70;98.40;;;;;;5133221;27;20603;-83
2022/10/22 12:56:34;;;;;;;0.50;0.50;;;17.70;99.00;;;;;;5134028;27;20603;-84
2022/10/22 12:59:04;;;;;;;0.40;0.40;;;17.80;97.80;;;;;;5134517;27;21031;-84
2022/10/22 13:01:36;;;;;;;0.50;0.50;;;17.80;98.20;;;;;;5133988;27;20607;-84
2022/10/22 13:04:19;;;;;;;0.40;0.40;;;17.90;96.90;;;;;;5133887;27;20607;-83